METAR K3S8 220655Z AUTO 00000KT 10SM 13/13 A3010


AIRPORT ID: 3S8

DATE(M/D/Y): 11/22/2017 6:55 Z 22:55 L


WIND DIRECT: 180

WIND SPEED: 0 KT

WIND CONDITIONS:

VISIBILTY: 10 SM 9999 M

TEMPERATURE: 55 F 13 C

DEW POINT: 55 F 13 C

ALTIMETER: A3010 Q1019

DENSITY ALT: 1000 FT

HUMID: 111%

LCL: Under 500 FT


RADIO CHECK: 0

ADVISORIES: 1

GREETINGS: 0

CONVERSATIONS: 4